createdAt,value
2019-04-20T00:00:17.331Z,77.26
2019-04-20T00:01:22.787Z,77.15
2019-04-20T00:02:19.344Z,79.54
2019-04-20T00:03:16.305Z,80.16
2019-04-20T00:04:23.427Z,81.32
2019-04-20T00:05:17.268Z,80.81
2019-04-20T00:06:17.376Z,81.01
2019-04-20T00:07:18.644Z,81.84
2019-04-20T00:08:23.163Z,81.52
2019-04-20T00:09:24.051Z,82.35
2019-04-20T00:10:20.944Z,82.90
2019-04-20T00:11:25.438Z,83.00
2019-04-20T00:12:25.248Z,83.51
2019-04-20T00:13:30.273Z,83.20
2019-04-20T00:14:22.412Z,82.90
2019-04-20T00:15:17.544Z,83.55
2019-04-20T00:16:16.825Z,83.49
2019-04-20T00:17:16.138Z,83.90
2019-04-20T00:18:16.971Z,83.55
2019-04-20T00:19:24.313Z,83.76
2019-04-20T00:20:23.621Z,83.55
2019-04-20T00:21:17.957Z,83.96
2019-04-20T00:22:17.229Z,84.41
2019-04-20T00:23:22.626Z,83.59
2019-04-20T00:24:23.395Z,85.13
2019-04-20T00:25:20.476Z,84.66
2019-04-20T00:26:26.540Z,84.69
2019-04-20T00:27:38.883Z,85.82
2019-04-20T00:28:35.192Z,86.95
2019-04-20T00:29:35.289Z,86.95
2019-04-20T00:30:48.029Z,87.82
2019-04-20T00:31:31.081Z,87.26
2019-04-20T00:32:29.590Z,86.95
2019-04-20T00:33:30.924Z,86.24
2019-04-20T00:34:24.580Z,85.93
2019-04-20T00:35:16.958Z,87.05
2019-04-20T00:36:16.163Z,87.26
2019-04-20T00:37:17.079Z,86.24
2019-04-20T00:38:16.064Z,86.65
2019-04-20T00:39:17.233Z,87.05
2019-04-20T00:40:17.041Z,86.65
2019-04-20T00:41:18.569Z,87.16
2019-04-20T00:42:17.671Z,86.75
2019-04-20T00:43:21.054Z,86.33
2019-04-20T00:44:24.238Z,86.75
2019-04-20T00:45:23.587Z,87.40
2019-04-20T00:46:26.043Z,87.77
2019-04-20T00:47:30.943Z,88.08
2019-04-20T00:48:32.693Z,86.95
2019-04-20T00:49:30.566Z,86.99
2019-04-20T00:50:35.746Z,88.23
2019-04-20T00:51:32.779Z,87.92
2019-04-20T00:52:30.770Z,87.51
2019-04-20T00:53:25.991Z,87.61
2019-04-20T00:54:17.962Z,87.71
2019-04-20T00:55:16.920Z,88.06
2019-04-20T00:56:16.158Z,87.61
2019-04-20T00:57:24.459Z,87.96
2019-04-20T00:58:23.586Z,88.06
2019-04-20T00:59:30.221Z,88.06
2019-04-20T01:00:35.726Z,87.79
2019-04-20T01:01:40.138Z,89.44
2019-04-20T01:02:32.598Z,89.44
2019-04-20T01:03:34.778Z,89.44
2019-04-20T01:04:39.005Z,90.20
2019-04-20T01:05:35.376Z,90.09
2019-04-20T01:06:32.432Z,91.53
2019-04-20T01:07:28.945Z,90.92
2019-04-20T01:08:17.137Z,92.05
2019-04-20T01:09:16.048Z,91.85
2019-04-20T01:10:15.597Z,92.50
2019-04-20T01:11:16.715Z,91.78
2019-04-20T01:12:21.569Z,91.99
2019-04-20T01:13:20.067Z,91.78
2019-04-20T01:14:25.498Z,91.17
2019-04-20T01:15:25.611Z,91.83
2019-04-20T01:16:25.177Z,93.27
2019-04-20T01:17:16.503Z,93.68
2019-04-20T01:18:15.482Z,94.40
2019-04-20T01:19:15.913Z,93.99
2019-04-20T01:20:15.460Z,93.88
2019-04-20T01:21:20.283Z,93.37
2019-04-20T01:22:19.857Z,94.60
2019-04-20T01:23:20.741Z,94.92
2019-04-20T01:24:24.788Z,94.92
2019-04-20T01:25:22.154Z,95.02
2019-04-20T01:26:19.706Z,95.02
2019-04-20T01:27:27.180Z,94.60
2019-04-20T01:28:35.497Z,94.92
2019-04-20T01:29:27.459Z,94.51
2019-04-20T01:30:25.160Z,93.41
2019-04-20T01:31:27.138Z,93.83
2019-04-20T01:32:27.375Z,94.76
2019-04-20T01:33:29.009Z,94.76
2019-04-20T01:34:33.728Z,94.24
2019-04-20T01:35:35.567Z,94.76
2019-04-20T01:36:36.906Z,94.76
2019-04-20T01:37:29.310Z,95.00
2019-04-20T01:38:26.762Z,94.90
2019-04-20T01:39:26.051Z,96.41
2019-04-20T01:40:16.970Z,95.37
2019-04-20T01:41:16.096Z,95.31
2019-04-20T01:42:15.226Z,96.20
2019-04-20T01:43:16.348Z,95.00
2019-04-20T01:44:18.028Z,95.06
2019-04-20T01:45:22.421Z,94.59
2019-04-20T01:46:20.676Z,95.93
2019-04-20T01:47:17.107Z,96.50
2019-04-20T01:48:22.891Z,96.30
2019-04-20T01:49:22.087Z,95.99
2019-04-20T01:50:20.932Z,95.89
2019-04-20T01:51:21.163Z,96.71
2019-04-20T01:52:24.329Z,97.13
2019-04-20T01:53:37.784Z,97.27
2019-04-20T01:54:33.944Z,96.14
2019-04-20T01:55:35.837Z,96.34
2019-04-20T01:56:31.649Z,96.24
2019-04-20T01:57:23.810Z,96.24
2019-04-20T01:58:35.192Z,96.24
2019-04-20T01:59:29.548Z,97.11
2019-04-20T02:00:23.338Z,97.48
2019-04-20T02:01:21.004Z,97.38
2019-04-20T02:02:19.562Z,97.23
2019-04-20T02:03:17.058Z,97.17
2019-04-20T02:04:21.993Z,96.86
2019-04-20T02:05:22.813Z,96.96
2019-04-20T02:06:19.728Z,97.17
2019-04-20T02:07:18.369Z,96.55
2019-04-20T02:08:20.686Z,95.83
2019-04-20T02:09:21.135Z,96.34
2019-04-20T02:10:18.242Z,96.66
2019-04-20T02:11:23.055Z,97.27
2019-04-20T02:12:23.647Z,97.06
2019-04-20T02:13:15.918Z,96.66
2019-04-20T02:14:24.277Z,96.03
2019-04-20T02:15:24.482Z,95.98
2019-04-20T02:16:27.546Z,95.98
2019-04-20T02:17:26.193Z,96.08
2019-04-20T02:18:30.466Z,97.31
2019-04-20T02:19:32.888Z,96.28
2019-04-20T02:20:38.970Z,96.49
2019-04-20T02:21:34.232Z,95.15
2019-04-20T02:23:29.291Z,94.57
2019-04-20T02:24:16.518Z,95.56
2019-04-20T02:25:14.764Z,95.71
2019-04-20T02:26:15.993Z,96.53
2019-04-20T02:27:14.827Z,96.33
2019-04-20T02:28:35.906Z,95.40
2019-04-20T02:29:43.069Z,95.40
2019-04-20T02:30:48.183Z,95.03
2019-04-20T02:31:55.612Z,96.06
2019-04-20T02:32:47.934Z,96.53
2019-04-20T02:33:47.493Z,96.23
2019-04-20T02:34:53.378Z,96.64
2019-04-20T02:35:54.215Z,96.58
2019-04-20T02:37:59.821Z,97.30
2019-04-20T02:39:15.272Z,96.37
2019-04-20T02:40:01.974Z,96.48
2019-04-20T02:40:50.694Z,96.37
2019-04-20T02:41:49.745Z,95.96
2019-04-20T02:42:50.941Z,95.34
2019-04-20T02:44:01.307Z,94.42
2019-04-20T02:44:47.607Z,94.42
2019-04-20T02:45:47.194Z,95.34
2019-04-20T02:46:46.895Z,96.17
2019-04-20T02:47:47.761Z,96.06
2019-04-20T02:48:52.489Z,95.86
2019-04-20T02:50:49.604Z,94.72
2019-04-20T02:51:46.994Z,94.93
2019-04-20T02:54:05.662Z,94.93
2019-04-20T02:54:45.123Z,95.24
2019-04-20T02:55:48.344Z,95.14
2019-04-20T02:57:03.235Z,94.87
2019-04-20T02:57:58.093Z,94.42
2019-04-20T02:58:50.200Z,94.77
2019-04-20T02:59:59.486Z,95.18
2019-04-20T03:00:38.593Z,95.28
2019-04-20T03:01:35.945Z,95.02
2019-04-20T03:02:32.232Z,95.28
2019-04-20T03:03:26.455Z,93.79
2019-04-20T03:04:28.335Z,92.55
2019-04-20T03:05:28.235Z,89.40
2019-04-20T03:06:26.307Z,87.75
2019-04-20T03:07:32.965Z,88.37
2019-04-20T03:08:33.050Z,84.79
2019-04-20T03:09:36.908Z,79.77
2019-04-20T03:10:43.293Z,79.70
2019-04-20T03:11:46.493Z,79.25
2019-04-20T03:12:38.376Z,77.81
2019-04-20T03:13:39.679Z,77.58
2019-04-20T03:14:30.303Z,76.41
2019-04-20T03:15:40.541Z,75.35
2019-04-20T03:16:32.327Z,72.86
2019-04-20T03:17:39.006Z,72.20
2019-04-20T03:18:35.072Z,71.77
2019-04-20T03:19:28.866Z,72.69
2019-04-20T03:20:36.601Z,70.64
2019-04-20T03:21:37.979Z,70.74
2019-04-20T03:23:01.091Z,70.50
2019-04-20T03:23:44.443Z,70.26
2019-04-20T03:24:37.394Z,69.65
2019-04-20T03:25:36.081Z,70.61
2019-04-20T03:26:34.131Z,70.94
2019-04-20T03:27:29.235Z,71.86
2019-04-20T03:28:34.614Z,72.55
2019-04-20T03:29:37.074Z,71.59
2019-04-20T03:31:15.244Z,71.90
2019-04-20T03:31:54.343Z,70.47
2019-04-20T03:36:02.586Z,72.75
2019-04-20T03:36:41.511Z,75.45
2019-04-20T03:37:39.585Z,75.62
2019-04-20T03:38:38.321Z,76.79
2019-04-20T03:39:33.547Z,78.09
2019-04-20T03:40:29.856Z,79.02
2019-04-20T03:41:25.379Z,80.70
2019-04-20T03:42:16.019Z,81.25
2019-04-20T03:43:13.986Z,81.87
2019-04-20T03:44:19.161Z,83.04
2019-04-20T03:45:19.282Z,83.90
2019-04-20T03:46:19.154Z,83.80
2019-04-20T03:47:26.851Z,84.77
2019-04-20T03:48:33.616Z,84.05
2019-04-20T03:49:42.492Z,86.04
2019-04-20T03:50:39.377Z,88.14
2019-04-20T03:51:40.064Z,88.92
2019-04-20T03:52:34.067Z,88.35
2019-04-20T03:53:34.466Z,87.63
2019-04-20T03:54:28.252Z,88.65
2019-04-20T03:55:34.154Z,88.35
2019-04-20T03:56:38.216Z,89.11
2019-04-20T03:57:35.724Z,89.22
2019-04-20T03:58:34.073Z,90.39
2019-04-20T03:59:33.823Z,90.28
2019-04-20T04:00:30.512Z,89.42
2019-04-20T04:01:57.142Z,87.11
2019-04-20T04:02:45.665Z,85.63
2019-04-20T04:03:44.099Z,85.42
2019-04-20T04:04:33.843Z,83.84
2019-04-20T04:05:31.039Z,81.15
2019-04-20T04:06:24.175Z,78.27
2019-04-20T04:07:24.881Z,75.52
2019-04-20T04:08:23.722Z,73.50
2019-04-20T04:09:25.794Z,73.68
2019-04-20T04:10:28.246Z,74.49
2019-04-20T04:11:31.464Z,74.53
2019-04-20T04:12:23.678Z,72.58
2019-04-20T04:13:14.949Z,72.86
2019-04-20T04:14:13.711Z,73.27
2019-04-20T04:15:14.697Z,73.57
2019-04-20T04:16:16.417Z,73.40
2019-04-20T04:17:21.290Z,73.81
2019-04-20T04:18:23.052Z,73.91
2019-04-20T04:19:21.660Z,73.81
2019-04-20T04:20:16.555Z,73.50
2019-04-20T04:21:20.362Z,73.74
2019-04-20T04:22:24.818Z,73.44
2019-04-20T04:23:32.957Z,73.44
2019-04-20T04:24:26.107Z,73.44
2019-04-20T04:25:25.163Z,73.54
2019-04-20T04:26:31.745Z,73.74
2019-04-20T04:27:32.572Z,74.91
2019-04-20T04:28:35.284Z,74.40
2019-04-20T04:29:40.216Z,73.95
2019-04-20T04:30:32.014Z,73.74
2019-04-20T04:31:32.335Z,73.30
2019-04-20T04:33:00.420Z,72.99
2019-04-20T04:34:34.655Z,72.96
2019-04-20T04:35:28.082Z,72.55
2019-04-20T04:36:30.698Z,72.89
2019-04-20T04:37:32.451Z,73.40
2019-04-20T04:38:37.451Z,72.89
2019-04-20T04:39:35.360Z,72.89
2019-04-20T04:40:39.240Z,73.19
2019-04-20T04:41:32.053Z,73.06
2019-04-20T04:42:34.268Z,72.86
2019-04-20T04:43:35.937Z,72.99
2019-04-20T04:44:26.629Z,72.68
2019-04-20T04:45:17.582Z,71.11
2019-04-20T04:46:14.468Z,70.87
2019-04-20T04:47:14.918Z,70.47
2019-04-20T04:48:21.409Z,70.67
2019-04-20T04:49:20.789Z,70.16
2019-04-20T04:50:18.402Z,70.47
2019-04-20T04:51:22.127Z,70.57
2019-04-20T04:52:19.208Z,71.08
2019-04-20T04:53:27.202Z,72.41
2019-04-20T04:54:25.870Z,73.16
2019-04-20T04:55:26.024Z,75.56
2019-04-20T04:56:17.094Z,75.69
2019-04-20T04:57:14.150Z,77.06
2019-04-20T04:58:13.146Z,76.75
2019-04-20T04:59:13.150Z,77.92
2019-04-20T05:00:17.934Z,78.64
2019-04-20T05:01:20.686Z,78.57
2019-04-20T05:02:14.088Z,78.57
2019-04-20T05:03:28.522Z,77.85
2019-04-20T05:04:33.995Z,77.34
2019-04-20T05:05:36.634Z,77.75
2019-04-20T05:06:35.517Z,78.88
2019-04-20T05:07:24.442Z,76.93
2019-04-20T05:08:21.942Z,75.87
2019-04-20T05:09:16.777Z,75.32
2019-04-20T05:10:14.069Z,73.64
2019-04-20T05:11:13.191Z,74.36
2019-04-20T05:12:19.665Z,73.54
2019-04-20T05:13:13.969Z,73.40
2019-04-20T05:14:19.309Z,72.24
2019-04-20T05:15:28.213Z,71.32
2019-04-20T05:16:34.788Z,72.92
2019-04-20T05:17:36.539Z,72.00
2019-04-20T05:18:41.190Z,72.31
2019-04-20T05:19:37.022Z,71.80
2019-04-20T05:20:38.656Z,72.20
2019-04-20T05:21:29.834Z,72.41
2019-04-20T05:22:36.860Z,73.74
2019-04-20T05:23:29.525Z,74.80
2019-04-20T05:24:28.823Z,76.99
2019-04-20T05:25:31.032Z,75.96
2019-04-20T05:26:38.554Z,75.86
2019-04-20T05:27:34.776Z,75.56
2019-04-20T05:28:27.908Z,73.88
2019-04-20T05:29:19.724Z,73.88
2019-04-20T05:30:14.040Z,74.80
2019-04-20T05:31:13.907Z,75.21
2019-04-20T05:32:17.986Z,75.31
2019-04-20T05:33:24.499Z,76.95
2019-04-20T05:34:31.002Z,76.58
2019-04-20T05:35:30.948Z,77.09
2019-04-20T05:36:40.494Z,76.89
2019-04-20T05:37:59.365Z,77.29
2019-04-20T05:38:41.809Z,78.12
2019-04-20T05:39:51.932Z,78.32
2019-04-20T05:40:35.532Z,78.74
2019-04-20T05:41:32.482Z,79.14
2019-04-20T05:42:41.228Z,78.42
2019-04-20T05:43:31.583Z,79.21
2019-04-20T05:44:39.442Z,79.82
2019-04-20T05:45:29.974Z,78.49
2019-04-20T05:46:33.588Z,77.87
2019-04-20T05:47:33.455Z,78.19
2019-04-20T05:48:31.734Z,78.80
2019-04-20T05:49:31.743Z,78.11
2019-04-20T05:50:32.850Z,78.31
2019-04-20T05:51:36.617Z,78.17
2019-04-20T05:53:36.620Z,79.27
2019-04-20T05:54:39.222Z,78.14
2019-04-20T05:55:33.071Z,77.70
2019-04-20T05:56:35.483Z,77.15
2019-04-20T05:57:36.217Z,76.53
2019-04-20T05:58:32.982Z,75.68
2019-04-20T05:59:37.431Z,75.34
2019-04-20T06:00:45.883Z,73.27
2019-04-20T06:01:40.828Z,72.79
2019-04-20T06:02:32.185Z,71.06
2019-04-20T06:03:34.118Z,69.23
2019-04-20T06:04:46.381Z,67.50
2019-04-20T06:05:36.922Z,64.33
2019-04-20T06:06:33.322Z,62.95
2019-04-20T06:07:35.772Z,62.82
2019-04-20T06:08:51.608Z,63.81
2019-04-20T06:09:33.913Z,62.56
2019-04-20T06:10:41.791Z,62.46
2019-04-20T06:11:32.960Z,62.73
2019-04-20T06:12:35.918Z,60.91
2019-04-20T06:13:28.066Z,61.01
2019-04-20T06:14:20.910Z,58.58
2019-04-20T06:15:37.089Z,60.41
2019-04-20T06:16:38.996Z,59.87
2019-04-20T06:17:34.522Z,59.36
2019-04-20T06:18:24.199Z,58.93
2019-04-20T06:19:36.953Z,57.76
2019-04-20T06:20:37.991Z,56.73
2019-04-20T06:21:37.826Z,57.23
2019-04-20T06:22:37.608Z,55.90
2019-04-20T06:23:38.700Z,53.88
2019-04-20T06:24:39.964Z,54.28
2019-04-20T06:26:43.453Z,53.12
2019-04-20T06:27:35.282Z,50.80
2019-04-20T06:28:30.151Z,52.34
2019-04-20T06:29:26.374Z,53.34
2019-04-20T06:30:28.059Z,54.41
2019-04-20T06:31:36.031Z,52.72
2019-04-20T06:32:33.124Z,51.39
2019-04-20T06:33:52.040Z,51.46
2019-04-20T06:34:39.952Z,51.84
2019-04-20T06:35:56.338Z,50.33
2019-04-20T06:36:39.983Z,48.90
2019-04-20T06:37:38.979Z,48.63
2019-04-20T06:38:53.970Z,48.70
2019-04-20T06:39:45.095Z,50.61
2019-04-20T06:41:57.110Z,49.30
2019-04-20T06:42:29.234Z,50.68
2019-04-20T06:43:42.099Z,50.36
2019-04-20T06:45:36.420Z,46.83
2019-04-20T06:46:37.605Z,48.93
2019-04-20T06:47:33.214Z,49.51
2019-04-20T06:48:42.642Z,48.49
2019-04-20T06:49:34.453Z,46.91
2019-04-20T06:50:28.832Z,49.08
2019-04-20T06:51:34.624Z,48.36
2019-04-20T06:52:34.141Z,46.81
2019-04-20T06:53:39.054Z,45.81
2019-04-20T06:54:29.603Z,46.74
2019-04-20T06:55:38.510Z,45.36
2019-04-20T06:56:36.785Z,50.44
2019-04-20T06:57:35.677Z,47.24
2019-04-20T06:59:38.685Z,48.79
2019-04-20T07:00:35.124Z,47.81
2019-04-20T07:01:42.220Z,48.83
2019-04-20T07:02:37.041Z,50.39
2019-04-20T07:03:40.308Z,49.21
2019-04-20T07:04:43.200Z,50.63
2019-04-20T07:05:37.864Z,49.58
2019-04-20T07:07:32.480Z,47.50
2019-04-20T07:08:58.699Z,49.33
2019-04-20T07:09:59.832Z,49.01
2019-04-20T07:10:40.680Z,45.38
2019-04-20T07:11:34.320Z,46.38
2019-04-20T07:12:33.990Z,46.94
2019-04-20T07:13:27.995Z,46.56
2019-04-20T07:14:28.936Z,47.64
2019-04-20T07:15:28.502Z,45.96
2019-04-20T07:16:36.296Z,46.74
2019-04-20T07:17:53.338Z,46.56
2019-04-20T07:18:35.315Z,49.37
2019-04-20T07:19:28.932Z,48.42
2019-04-20T07:20:42.761Z,47.89
2019-04-20T07:21:43.923Z,48.60
2019-04-20T07:22:33.670Z,47.99
2019-04-20T07:23:31.180Z,47.57
2019-04-20T07:24:40.249Z,45.31
2019-04-20T07:25:37.495Z,48.49
2019-04-20T07:26:37.499Z,47.60
2019-04-20T07:27:35.403Z,47.89
2019-04-20T07:28:41.063Z,47.60
2019-04-20T07:29:52.324Z,47.69
2019-04-20T07:30:35.391Z,49.59
2019-04-20T07:31:30.483Z,47.35
2019-04-20T07:32:38.678Z,45.75
2019-04-20T07:33:33.424Z,45.95
2019-04-20T07:34:36.218Z,48.93
2019-04-20T07:35:30.484Z,47.03
2019-04-20T07:36:40.281Z,47.65
2019-04-20T07:37:57.161Z,48.93
2019-04-20T07:39:33.147Z,46.73
2019-04-20T07:40:29.206Z,48.45
2019-04-20T07:41:42.023Z,46.05
2019-04-20T07:42:34.833Z,47.60
2019-04-20T07:43:31.973Z,45.87
2019-04-20T07:44:42.801Z,48.47
2019-04-20T07:45:58.707Z,47.60
2019-04-20T07:46:49.922Z,49.22
2019-04-20T07:47:41.651Z,49.09
2019-04-20T07:48:29.290Z,49.19
2019-04-20T07:49:30.155Z,46.47
2019-04-20T07:50:25.200Z,47.52
2019-04-20T07:51:19.556Z,46.77
2019-04-20T07:52:12.347Z,46.45
2019-04-20T07:53:28.174Z,47.37
2019-04-20T07:54:37.507Z,48.44
2019-04-20T07:55:39.047Z,49.26
2019-04-20T07:56:39.337Z,49.32
2019-04-20T07:57:32.895Z,46.62
2019-04-20T07:58:25.097Z,48.60
2019-04-20T07:59:25.239Z,50.22
2019-04-20T08:00:44.814Z,48.87
2019-04-20T08:01:41.314Z,45.45
2019-04-20T08:02:40.804Z,47.97
2019-04-20T08:04:28.829Z,45.03
2019-04-20T08:05:28.183Z,46.03
2019-04-20T08:06:20.839Z,46.57
2019-04-20T08:07:14.120Z,47.67
2019-04-20T08:08:30.742Z,45.73
2019-04-20T08:09:23.848Z,43.93
2019-04-20T08:10:32.482Z,47.58
2019-04-20T08:11:29.078Z,43.99
2019-04-20T08:12:48.975Z,42.91
2019-04-20T08:13:42.201Z,47.20
2019-04-20T08:14:42.526Z,45.51
2019-04-20T08:15:47.218Z,43.01
2019-04-20T08:16:41.086Z,43.73
2019-04-20T08:17:41.384Z,46.25
2019-04-20T08:19:33.199Z,45.07
2019-04-20T08:20:33.083Z,46.47
2019-04-20T08:21:39.178Z,46.69
2019-04-20T08:22:35.516Z,46.59
2019-04-20T08:23:28.560Z,47.39
2019-04-20T08:24:28.468Z,48.90
2019-04-20T08:25:23.983Z,50.97
2019-04-20T08:26:20.212Z,48.38
2019-04-20T08:27:13.164Z,47.71
2019-04-20T08:28:17.702Z,44.01
2019-04-20T08:29:23.904Z,43.13
2019-04-20T08:30:30.913Z,42.53
2019-04-20T08:31:26.921Z,45.02
2019-04-20T08:32:28.313Z,44.24
2019-04-20T08:33:31.203Z,45.59
2019-04-20T08:34:36.844Z,43.09
2019-04-20T08:35:31.869Z,42.91
2019-04-20T08:36:33.167Z,46.46
2019-04-20T08:39:01.352Z,44.21
2019-04-20T08:39:46.637Z,40.92
2019-04-20T08:40:32.679Z,43.15
2019-04-20T08:41:27.191Z,45.07
2019-04-20T08:42:38.006Z,45.87
2019-04-20T08:43:42.573Z,41.30
2019-04-20T08:45:36.113Z,47.22
2019-04-20T08:46:36.162Z,43.37
2019-04-20T08:47:37.823Z,46.75
2019-04-20T08:48:34.874Z,44.81
2019-04-20T08:49:37.862Z,43.27
2019-04-20T08:50:27.123Z,43.29
2019-04-20T08:51:34.706Z,42.18
2019-04-20T08:52:55.161Z,41.50
2019-04-20T08:53:36.925Z,40.64
2019-04-20T08:54:29.690Z,44.29
2019-04-20T08:55:29.761Z,41.47
2019-04-20T08:56:25.721Z,40.95
2019-04-20T08:57:11.610Z,40.62
2019-04-20T08:58:11.406Z,44.11
2019-04-20T08:59:11.640Z,42.87
2019-04-20T09:00:11.089Z,41.46
2019-04-20T09:01:14.449Z,44.01
2019-04-20T09:02:14.257Z,46.47
2019-04-20T09:03:18.056Z,39.17
2019-04-20T09:04:18.407Z,42.23
2019-04-20T09:05:24.839Z,40.64
2019-04-20T09:06:28.331Z,39.57
2019-04-20T09:07:17.857Z,40.46
2019-04-20T09:08:20.046Z,42.33
2019-04-20T09:09:38.021Z,45.67
2019-04-20T09:10:34.550Z,39.41
2019-04-20T09:11:31.051Z,38.35
2019-04-20T09:12:29.095Z,44.48
2019-04-20T09:13:21.034Z,38.20
2019-04-20T09:14:12.214Z,43.11
2019-04-20T09:15:10.567Z,42.33
2019-04-20T09:16:11.006Z,40.92
2019-04-20T09:17:14.096Z,43.79
2019-04-20T09:18:22.761Z,43.37
2019-04-20T09:19:14.528Z,41.14
2019-04-20T09:20:16.984Z,40.90
2019-04-20T09:21:25.386Z,39.43
2019-04-20T09:22:23.353Z,37.72
2019-04-20T09:23:27.245Z,37.84
2019-04-20T09:24:36.416Z,42.51
2019-04-20T09:25:58.946Z,42.49
2019-04-20T09:26:32.768Z,43.06
2019-04-20T09:27:21.744Z,41.08
2019-04-20T09:28:22.300Z,41.46
2019-04-20T09:29:27.293Z,39.13
2019-04-20T09:30:25.454Z,44.49
2019-04-20T09:31:25.859Z,40.92
2019-04-20T09:32:31.254Z,41.87
2019-04-20T09:33:31.832Z,40.86
2019-04-20T09:34:25.514Z,42.83
2019-04-20T09:35:31.288Z,42.93
2019-04-20T09:36:24.009Z,42.71
2019-04-20T09:37:31.018Z,44.71
2019-04-20T09:38:28.769Z,46.48
2019-04-20T09:39:22.495Z,43.46
2019-04-20T09:40:32.163Z,45.40
2019-04-20T09:41:30.517Z,46.37
2019-04-20T09:42:11.092Z,44.86
2019-04-20T09:43:10.966Z,40.33
2019-04-20T09:44:10.996Z,42.71
2019-04-20T09:45:19.775Z,42.80
2019-04-20T09:46:11.840Z,42.80
2019-04-20T09:47:10.514Z,41.67
2019-04-20T09:48:16.703Z,42.37
2019-04-20T09:49:20.036Z,40.92
2019-04-20T09:50:27.790Z,40.56
2019-04-20T09:51:30.717Z,45.39
2019-04-20T09:52:27.962Z,45.74
2019-04-20T09:53:24.763Z,42.66
2019-04-20T09:54:32.597Z,42.96
2019-04-20T09:55:24.681Z,43.14
2019-04-20T09:56:20.804Z,44.60
2019-04-20T09:57:29.597Z,44.33
2019-04-20T09:58:24.189Z,42.86
2019-04-20T09:59:31.899Z,44.49
2019-04-20T10:00:25.638Z,44.07
2019-04-20T10:01:22.739Z,46.61
2019-04-20T10:02:18.790Z,43.10
2019-04-20T10:03:10.873Z,40.03
2019-04-20T10:04:10.964Z,43.30
2019-04-20T10:05:09.854Z,43.28
2019-04-20T10:06:09.854Z,42.88
2019-04-20T10:07:15.878Z,41.81
2019-04-20T10:08:11.783Z,44.41
2019-04-20T10:09:09.817Z,44.95
2019-04-20T10:10:22.246Z,46.61
2019-04-20T10:11:11.774Z,45.10
2019-04-20T10:12:11.153Z,45.32
2019-04-20T10:13:11.133Z,43.93
2019-04-20T10:14:10.397Z,42.65
2019-04-20T10:15:15.972Z,45.28
2019-04-20T10:16:11.353Z,43.67
2019-04-20T10:17:09.768Z,44.59
2019-04-20T10:18:10.065Z,45.70
2019-04-20T10:19:11.786Z,46.30
2019-04-20T10:20:17.618Z,42.52
2019-04-20T10:21:11.779Z,51.12
2019-04-20T10:22:10.868Z,43.35
2019-04-20T10:23:09.677Z,48.38
2019-04-20T10:24:10.605Z,44.72
2019-04-20T10:25:10.808Z,42.64
2019-04-20T10:26:09.656Z,44.60
2019-04-20T10:27:10.500Z,42.44
2019-04-20T10:28:09.729Z,44.56
2019-04-20T10:29:09.913Z,45.90
2019-04-20T10:30:10.434Z,48.57
2019-04-20T10:31:10.651Z,47.53
2019-04-20T10:32:12.540Z,47.02
2019-04-20T10:33:10.641Z,42.43
2019-04-20T10:34:09.629Z,42.98
2019-04-20T10:35:12.179Z,44.59
2019-04-20T10:36:11.831Z,45.48
2019-04-20T10:37:09.532Z,48.70
2019-04-20T10:38:09.722Z,44.90
2019-04-20T10:39:10.829Z,41.85
2019-04-20T10:40:09.501Z,45.12
2019-04-20T10:41:16.263Z,42.48
2019-04-20T10:42:10.499Z,42.68
2019-04-20T10:43:10.230Z,40.11
2019-04-20T10:44:09.505Z,41.63
2019-04-20T10:45:10.793Z,42.29
2019-04-20T10:46:09.448Z,44.71
2019-04-20T10:47:09.437Z,47.26
2019-04-20T10:48:09.434Z,45.56
2019-04-20T10:49:09.787Z,46.40
2019-04-20T10:50:09.457Z,42.22
2019-04-20T10:51:10.592Z,42.50
2019-04-20T10:52:09.718Z,41.99
2019-04-20T10:53:09.951Z,43.59
2019-04-20T10:54:09.372Z,45.03
2019-04-20T10:55:10.488Z,46.17
2019-04-20T10:56:09.652Z,41.43
2019-04-20T10:57:09.824Z,44.39
2019-04-20T10:58:09.455Z,42.32
2019-04-20T10:59:09.800Z,46.19
2019-04-20T11:00:09.988Z,43.70
2019-04-20T11:01:09.629Z,44.32
2019-04-20T11:02:09.927Z,42.83
2019-04-20T11:03:10.000Z,42.13
2019-04-20T11:04:10.549Z,43.23
2019-04-20T11:05:10.686Z,43.62
2019-04-20T11:06:09.245Z,41.53
2019-04-20T11:07:10.425Z,39.97
2019-04-20T11:08:10.554Z,40.72
2019-04-20T11:09:09.213Z,41.91
2019-04-20T11:10:16.671Z,40.42
2019-04-20T11:11:16.375Z,43.29
2019-04-20T11:12:10.518Z,42.80
2019-04-20T11:13:09.647Z,38.17
2019-04-20T11:14:19.018Z,38.39
2019-04-20T11:15:10.410Z,38.01
2019-04-20T11:16:10.613Z,38.62
2019-04-20T11:17:09.149Z,40.48
2019-04-20T11:18:09.312Z,42.84
2019-04-20T11:19:09.463Z,38.25
2019-04-20T11:20:09.693Z,36.55
2019-04-20T11:21:09.238Z,37.89
2019-04-20T11:22:10.306Z,38.32
2019-04-20T11:23:10.638Z,38.31
2019-04-20T11:24:10.033Z,44.32
2019-04-20T11:25:10.332Z,42.35
2019-04-20T11:26:10.407Z,41.63
2019-04-20T11:27:09.988Z,41.71
2019-04-20T11:28:10.225Z,39.22
2019-04-20T11:29:10.434Z,41.59
2019-04-20T11:30:10.041Z,39.50
2019-04-20T11:31:10.251Z,42.66
2019-04-20T11:32:09.680Z,38.13
2019-04-20T11:33:09.923Z,40.29
2019-04-20T11:34:10.266Z,43.60
2019-04-20T11:35:21.426Z,40.96
2019-04-20T11:36:09.956Z,40.27
2019-04-20T11:37:08.973Z,37.98
2019-04-20T11:38:12.520Z,37.51
2019-04-20T11:39:11.161Z,43.33
2019-04-20T11:40:08.928Z,41.55
2019-04-20T11:41:17.741Z,40.96
2019-04-20T11:42:10.094Z,41.63
2019-04-20T11:43:08.889Z,38.21
2019-04-20T11:44:09.566Z,37.82
2019-04-20T11:45:08.873Z,36.85
2019-04-20T11:46:09.054Z,43.35
2019-04-20T11:47:08.857Z,37.15
2019-04-20T11:48:09.577Z,36.55
2019-04-20T11:49:09.802Z,36.85
2019-04-20T11:50:09.473Z,40.82
2019-04-20T11:51:09.528Z,42.48
2019-04-20T11:52:09.791Z,40.47
2019-04-20T11:53:09.122Z,40.86
2019-04-20T11:54:08.780Z,35.83
2019-04-20T11:55:08.772Z,36.97
2019-04-20T11:56:15.977Z,40.58
2019-04-20T11:57:11.266Z,37.01
2019-04-20T11:58:09.997Z,36.93
2019-04-20T11:59:09.448Z,35.50
2019-04-20T12:00:08.903Z,36.94
2019-04-20T12:01:14.200Z,37.89
2019-04-20T12:02:14.286Z,38.57
2019-04-20T12:03:21.405Z,37.41
2019-04-20T12:04:24.864Z,37.62
2019-04-20T12:05:21.516Z,36.92
2019-04-20T12:06:10.563Z,36.61
2019-04-20T12:07:08.928Z,37.02
2019-04-20T12:08:09.260Z,38.19
2019-04-20T12:09:08.644Z,41.22
2019-04-20T12:10:14.869Z,36.08
2019-04-20T12:11:23.127Z,36.95
2019-04-20T12:12:23.432Z,38.02
2019-04-20T12:13:10.219Z,38.10
2019-04-20T12:14:08.606Z,38.29
2019-04-20T12:15:08.731Z,36.22
2019-04-20T12:16:09.758Z,36.91
2019-04-20T12:17:08.586Z,36.93
2019-04-20T12:18:09.578Z,37.32
2019-04-20T12:19:08.702Z,36.34
2019-04-20T12:20:08.540Z,37.72
2019-04-20T12:21:08.635Z,35.07
2019-04-20T12:22:09.718Z,36.63
2019-04-20T12:23:08.671Z,35.85
2019-04-20T12:24:08.518Z,37.60
2019-04-20T12:25:09.973Z,36.04
2019-04-20T12:26:08.939Z,37.90
2019-04-20T12:27:09.034Z,36.60
2019-04-20T12:28:09.581Z,35.33
2019-04-20T12:29:09.821Z,36.12
2019-04-20T12:30:09.911Z,33.84
2019-04-20T12:31:11.852Z,33.75
2019-04-20T12:32:10.680Z,34.63
2019-04-20T12:33:09.444Z,34.33
2019-04-20T12:34:08.644Z,35.38
2019-04-20T12:35:08.607Z,34.05
2019-04-20T12:36:08.406Z,35.05
2019-04-20T12:37:09.059Z,36.22
2019-04-20T12:38:10.267Z,36.22
2019-04-20T12:39:08.906Z,37.96
2019-04-20T12:40:09.042Z,38.34
2019-04-20T12:41:11.042Z,34.49
2019-04-20T12:42:09.594Z,34.82
2019-04-20T12:43:08.994Z,35.05
2019-04-20T12:44:08.344Z,34.78
2019-04-20T12:45:08.318Z,36.12
2019-04-20T12:46:09.637Z,34.82
2019-04-20T12:47:08.321Z,36.12
2019-04-20T12:48:08.299Z,34.48
2019-04-20T12:49:09.518Z,34.71
2019-04-20T12:50:09.618Z,35.49
2019-04-20T12:51:08.270Z,37.76
2019-04-20T12:52:08.531Z,35.73
2019-04-20T12:53:08.624Z,36.11
2019-04-20T12:54:08.870Z,34.95
2019-04-20T12:55:08.466Z,35.17
2019-04-20T12:56:08.619Z,35.66
2019-04-20T12:57:08.895Z,35.43
2019-04-20T12:58:08.354Z,36.60
2019-04-20T12:59:09.509Z,35.22
2019-04-20T13:00:08.178Z,35.41
2019-04-20T13:01:08.173Z,35.63
2019-04-20T13:02:09.226Z,38.02
2019-04-20T13:03:09.475Z,37.00
2019-04-20T13:04:09.399Z,37.45
2019-04-20T13:05:09.304Z,39.28
2019-04-20T13:06:08.137Z,39.55
2019-04-20T13:07:08.130Z,38.68
2019-04-20T13:08:09.329Z,37.39
2019-04-20T13:09:08.321Z,39.37
2019-04-20T13:10:09.714Z,37.69
2019-04-20T13:11:08.733Z,37.60